Time;durP1;ratioP1;P1;durP2;ratioP2;P2;SDS_P1;SDS_P2;PMS_P1;PMS_P2;Temp;Humidity;BMP_temperature;BMP_pressure;BME280_temperature;BME280_humidity;BME280_pressure;Samples;Min_cycle;Max_cycle;Signal;HPM_P1;HPM_P2
2022/06/14 00:00:54;;;;;;;7.50;3.60;;;;;;;;;;5109382;28;20044;-83
2022/06/14 00:03:41;;;;;;;10.20;3.50;;;;;;;;;;5092893;28;20067;-82
2022/06/14 00:06:18;;;;;;;7.70;3.45;;;;;;;;;;5103560;27;20397;-82
2022/06/14 00:08:44;;;;;;;7.68;3.22;;;;;;;;;;5130310;27;20482;-83
2022/06/14 00:11:15;;;;;;;8.18;3.30;;;;;;;;;;5096293;27;20566;-83
2022/06/14 00:13:42;;;;;;;7.63;3.60;;;;;;;;;;5113268;27;20043;-82
2022/06/14 00:16:08;;;;;;;7.38;3.60;;;;;;;;;;5130813;27;20586;-82
2022/06/14 00:18:35;;;;;;;9.95;3.50;;;;;;;;;;5130973;27;20100;-82
2022/06/14 00:21:01;;;;;;;9.52;3.47;;;;;;;;;;5127094;27;20044;-83
2022/06/14 00:23:28;;;;;;;10.27;4.00;;;;;;;;;;5092808;28;20081;-82
2022/06/14 00:25:55;;;;;;;13.02;3.75;;;;;;;;;;5109627;28;20042;-82
2022/06/14 00:28:23;;;;;;;8.40;3.58;;;;;;;;;;5091950;28;20040;-82
2022/06/14 00:30:50;;;;;;;10.10;4.00;;;;;;;;;;5092757;28;20039;-82
2022/06/14 00:33:17;;;;;;;8.65;4.18;;;;;;;;;;5100357;27;20078;-82
2022/06/14 00:35:43;;;;;;;9.90;4.20;;;;;;;;;;5129998;27;20129;-83
2022/06/14 00:38:12;;;;;;;9.80;4.43;;;;;;;;;;5130662;27;20043;-82
2022/06/14 00:40:38;;;;;;;10.10;4.65;;;;;;;;;;5131728;27;20130;-82
2022/06/14 00:43:12;;;;;;;8.05;3.72;;;;;;;;;;5113907;28;20043;-82
2022/06/14 00:45:38;;;;;;;9.85;3.53;;;;;;;;;;5131402;28;20114;-83
2022/06/14 00:48:07;;;;;;;8.13;3.70;;;;;;;;;;5129896;28;20077;-83
2022/06/14 00:50:54;;;;;;;11.02;4.20;;;;;;;;;;5130945;28;20062;-82
2022/06/14 00:53:24;;;;;;;11.82;4.22;;;;;;;;;;5113674;28;20043;-82
2022/06/14 00:55:54;;;;;;;7.82;3.75;;;;;;;;;;5097479;28;20086;-83
2022/06/14 00:58:29;;;;;;;11.98;3.65;;;;;;;;;;5128796;28;20495;-82
2022/06/14 01:01:01;;;;;;;10.00;4.13;;;;;;;;;;5088664;28;20482;-83
2022/06/14 01:03:30;;;;;;;10.52;3.92;;;;;;;;;;5072206;28;20492;-83
2022/06/14 01:06:06;;;;;;;9.93;3.60;;;;;;;;;;5072290;28;20036;-83
2022/06/14 01:08:56;;;;;;;7.05;3.55;;;;;;;;;;5072442;28;20036;-82
2022/06/14 01:11:32;;;;;;;11.07;3.88;;;;;;;;;;5072153;28;20091;-82
2022/06/14 01:14:00;;;;;;;9.43;3.65;;;;;;;;;;5088874;28;20174;-83
2022/06/14 01:16:26;;;;;;;9.25;3.70;;;;;;;;;;5088572;28;20063;-83
2022/06/14 01:18:52;;;;;;;9.52;3.75;;;;;;;;;;5072104;28;20035;-83
2022/06/14 01:21:18;;;;;;;14.50;4.53;;;;;;;;;;5099399;28;20039;-83
2022/06/14 01:23:44;;;;;;;8.63;3.80;;;;;;;;;;5094886;28;20104;-83
2022/06/14 01:26:16;;;;;;;9.45;3.83;;;;;;;;;;5112041;28;20031;-83
2022/06/14 01:28:45;;;;;;;8.30;3.63;;;;;;;;;;5113424;28;20490;-82
2022/06/14 01:31:11;;;;;;;8.68;4.10;;;;;;;;;;5129741;28;20039;-83
2022/06/14 01:33:41;;;;;;;8.32;3.40;;;;;;;;;;5093083;28;20036;-83
2022/06/14 01:36:25;;;;;;;11.90;3.67;;;;;;;;;;5098004;28;20100;-83
2022/06/14 01:38:52;;;;;;;10.90;4.23;;;;;;;;;;5113311;27;20039;-83
2022/06/14 01:41:18;;;;;;;8.98;3.85;;;;;;;;;;5116023;27;20039;-82
2022/06/14 01:44:11;;;;;;;7.72;3.65;;;;;;;;;;5133856;27;20429;-82
2022/06/14 01:46:56;;;;;;;8.77;3.47;;;;;;;;;;5095304;27;20052;-82
2022/06/14 01:52:16;;;;;;;9.32;3.38;;;;;;;;;;5123254;27;19922;-82
2022/06/14 01:54:49;;;;;;;8.05;3.78;;;;;;;;;;5109161;27;20054;-82
2022/06/14 01:57:34;;;;;;;8.65;3.72;;;;;;;;;;5115854;27;20049;-82
2022/06/14 02:00:36;;;;;;;7.40;3.92;;;;;;;;;;5133435;27;20035;-82
2022/06/14 02:06:04;;;;;;;11.63;4.10;;;;;;;;;;5092023;28;20125;-83
2022/06/14 02:08:32;;;;;;;12.65;4.35;;;;;;;;;;5119765;27;20035;-84
2022/06/14 02:11:02;;;;;;;7.28;3.50;;;;;;;;;;5114812;27;20414;-83
2022/06/14 02:13:44;;;;;;;9.65;3.67;;;;;;;;;;5115611;27;20517;-83
2022/06/14 02:16:28;;;;;;;10.05;3.80;;;;;;;;;;5115423;27;20413;-82
2022/06/14 02:19:09;;;;;;;9.20;3.70;;;;;;;;;;5130939;27;20073;-82
2022/06/14 02:21:47;;;;;;;9.20;3.45;;;;;;;;;;5103439;27;20080;-82
2022/06/14 02:24:16;;;;;;;8.25;3.90;;;;;;;;;;5132388;27;20398;-82
2022/06/14 02:26:46;;;;;;;8.20;3.58;;;;;;;;;;5113292;27;20035;-83
2022/06/14 02:29:20;;;;;;;9.18;4.05;;;;;;;;;;5094942;28;20027;-83
2022/06/14 02:31:59;;;;;;;11.82;4.35;;;;;;;;;;5123000;27;20088;-82
2022/06/14 02:34:30;;;;;;;9.30;3.70;;;;;;;;;;5114651;27;20051;-83
2022/06/14 02:37:01;;;;;;;10.10;4.40;;;;;;;;;;5126854;27;20044;-83
2022/06/14 02:39:32;;;;;;;10.00;4.03;;;;;;;;;;5111560;28;20160;-82
2022/06/14 02:42:02;;;;;;;8.93;4.05;;;;;;;;;;5125779;27;20039;-83
2022/06/14 02:44:33;;;;;;;10.27;4.00;;;;;;;;;;5131848;27;20043;-83
2022/06/14 02:47:05;;;;;;;11.25;3.90;;;;;;;;;;5114770;27;20046;-83
2022/06/14 02:49:52;;;;;;;12.05;4.43;;;;;;;;;;5118979;27;20115;-83
2022/06/14 02:52:22;;;;;;;9.02;3.78;;;;;;;;;;5094224;28;20174;-83
2022/06/14 02:54:52;;;;;;;8.85;3.90;;;;;;;;;;5110660;28;20490;-83
2022/06/14 02:57:32;;;;;;;7.70;3.80;;;;;;;;;;5110730;28;20157;-83
2022/06/14 03:00:02;;;;;;;10.40;3.85;;;;;;;;;;5094676;28;20040;-82
2022/06/14 03:02:32;;;;;;;8.60;3.88;;;;;;;;;;5110991;28;20519;-82
2022/06/14 03:05:17;;;;;;;7.38;4.15;;;;;;;;;;5093966;28;20040;-83
2022/06/14 03:07:52;;;;;;;8.73;3.95;;;;;;;;;;5110094;27;20039;-82
2022/06/14 03:10:19;;;;;;;7.82;3.50;;;;;;;;;;5113025;27;20258;-82
2022/06/14 03:13:08;;;;;;;10.82;3.75;;;;;;;;;;5130781;27;20498;-83
2022/06/14 03:15:56;;;;;;;11.48;4.03;;;;;;;;;;5129926;27;20127;-82
2022/06/14 03:18:22;;;;;;;8.68;3.72;;;;;;;;;;5078633;28;20518;-83
2022/06/14 03:21:08;;;;;;;10.57;4.20;;;;;;;;;;5119432;27;20047;-83
2022/06/14 03:23:43;;;;;;;6.97;3.60;;;;;;;;;;5112777;27;20068;-83
2022/06/14 03:26:19;;;;;;;8.68;3.97;;;;;;;;;;5112716;27;20046;-83
2022/06/14 03:28:51;;;;;;;9.82;4.25;;;;;;;;;;5115585;27;20266;-83
2022/06/14 03:31:20;;;;;;;8.65;4.40;;;;;;;;;;5121780;27;20071;-83
2022/06/14 03:33:55;;;;;;;10.60;3.88;;;;;;;;;;5112199;27;20039;-83
2022/06/14 03:36:21;;;;;;;;;;;;;;;;;;5103925;28;20043;-83
2022/06/14 03:38:48;;;;;;;10.80;3.88;;;;;;;;;;5104530;27;19915;-83
2022/06/14 03:41:16;;;;;;;8.68;4.40;;;;;;;;;;5112414;27;20067;-83
2022/06/14 03:43:42;;;;;;;9.93;4.13;;;;;;;;;;5125087;27;20058;-83
2022/06/14 03:46:20;;;;;;;7.60;3.35;;;;;;;;;;5092439;28;20049;-83
2022/06/14 03:48:49;;;;;;;11.65;4.38;;;;;;;;;;5109494;28;20518;-82
2022/06/14 03:51:24;;;;;;;10.65;4.60;;;;;;;;;;5108955;27;20043;-83
2022/06/14 03:53:57;;;;;;;7.93;4.03;;;;;;;;;;5115777;27;20043;-82
2022/06/14 03:56:26;;;;;;;8.93;4.47;;;;;;;;;;5099406;28;20046;-83
2022/06/14 03:59:17;;;;;;;10.50;4.53;;;;;;;;;;5107683;27;20084;-83
2022/06/14 04:02:06;;;;;;;9.43;5.00;;;;;;;;;;5078384;28;20123;-83
2022/06/14 04:04:33;;;;;;;10.95;4.43;;;;;;;;;;5110407;27;20043;-83
2022/06/14 04:06:59;;;;;;;14.77;5.03;;;;;;;;;;5095443;27;20364;-83
2022/06/14 04:09:25;;;;;;;11.30;4.72;;;;;;;;;;5122908;27;20046;-83
2022/06/14 04:11:51;;;;;;;9.80;4.68;;;;;;;;;;5118214;27;20042;-83
2022/06/14 04:14:37;;;;;;;10.95;4.93;;;;;;;;;;5099099;28;20043;-82
2022/06/14 04:17:10;;;;;;;11.32;5.00;;;;;;;;;;5078768;27;20043;-83
2022/06/14 04:19:52;;;;;;;10.00;4.45;;;;;;;;;;5113228;27;20129;-83
2022/06/14 04:22:19;;;;;;;7.18;3.80;;;;;;;;;;5114273;27;20046;-84
2022/06/14 04:24:49;;;;;;;9.95;4.25;;;;;;;;;;5128646;27;20122;-83
2022/06/14 04:27:23;;;;;;;10.70;4.78;;;;;;;;;;5112406;27;20031;-83
2022/06/14 04:29:52;;;;;;;8.00;4.33;;;;;;;;;;5099703;28;20149;-83
2022/06/14 04:32:28;;;;;;;10.80;4.65;;;;;;;;;;5108273;28;20129;-83
2022/06/14 04:35:17;;;;;;;11.50;5.25;;;;;;;;;;5081566;28;20077;-83
2022/06/14 04:37:52;;;;;;;11.35;4.50;;;;;;;;;;5104439;27;20105;-83
2022/06/14 04:40:21;;;;;;;9.50;4.70;;;;;;;;;;5125749;27;20180;-83
2022/06/14 04:42:57;;;;;;;10.55;4.85;;;;;;;;;;5092231;28;20048;-83
2022/06/14 04:45:47;;;;;;;12.55;4.55;;;;;;;;;;5108754;28;20040;-82
2022/06/14 04:48:15;;;;;;;11.00;4.80;;;;;;;;;;5108965;28;20035;-83
2022/06/14 04:50:51;;;;;;;9.45;5.28;;;;;;;;;;5113877;28;20039;-83
2022/06/14 04:53:17;;;;;;;10.30;4.43;;;;;;;;;;5102211;28;20067;-82
2022/06/14 04:55:50;;;;;;;11.48;5.80;;;;;;;;;;5092887;28;20047;-83
2022/06/14 04:58:21;;;;;;;13.82;5.05;;;;;;;;;;5112675;28;20466;-82
2022/06/14 05:00:53;;;;;;;12.82;5.30;;;;;;;;;;5129675;28;20043;-82
2022/06/14 05:03:28;;;;;;;10.02;5.45;;;;;;;;;;5129059;28;20039;-83
2022/06/14 05:06:02;;;;;;;10.40;5.07;;;;;;;;;;5096017;28;20040;-82
2022/06/14 05:08:31;;;;;;;13.10;6.20;;;;;;;;;;5129835;28;20512;-82
2022/06/14 05:11:12;;;;;;;12.10;5.20;;;;;;;;;;5101906;28;20044;-82
2022/06/14 05:14:05;;;;;;;11.30;5.43;;;;;;;;;;5109943;27;20054;-82
2022/06/14 05:16:32;;;;;;;11.18;5.30;;;;;;;;;;5091845;28;20108;-82
2022/06/14 05:18:58;;;;;;;11.75;5.35;;;;;;;;;;5113525;28;20075;-82
2022/06/14 05:21:24;;;;;;;9.75;4.53;;;;;;;;;;5096057;28;20474;-82
2022/06/14 05:23:53;;;;;;;13.32;5.38;;;;;;;;;;5095948;28;20035;-82
2022/06/14 05:26:37;;;;;;;10.48;5.10;;;;;;;;;;5112770;28;20426;-82
2022/06/14 05:29:22;;;;;;;16.30;5.78;;;;;;;;;;5109937;27;20117;-82
2022/06/14 05:31:48;;;;;;;11.25;4.82;;;;;;;;;;5133794;27;20195;-82
2022/06/14 05:34:34;;;;;;;10.52;4.80;;;;;;;;;;5116420;27;20039;-82
2022/06/14 05:37:15;;;;;;;10.32;4.78;;;;;;;;;;5116359;27;20084;-82
2022/06/14 05:39:47;;;;;;;10.73;4.95;;;;;;;;;;5133179;27;20041;-82
2022/06/14 05:42:18;;;;;;;14.52;5.43;;;;;;;;;;5124049;27;20503;-82
2022/06/14 05:44:46;;;;;;;11.38;5.38;;;;;;;;;;5112652;28;20039;-82
2022/06/14 05:47:16;;;;;;;12.43;5.13;;;;;;;;;;5096114;28;20039;-82
2022/06/14 05:49:45;;;;;;;9.85;4.95;;;;;;;;;;5115287;28;20040;-82
2022/06/14 05:52:12;;;;;;;9.93;4.47;;;;;;;;;;5098297;28;20074;-82
2022/06/14 05:54:47;;;;;;;10.88;4.85;;;;;;;;;;5113384;28;20371;-82
2022/06/14 05:57:29;;;;;;;10.35;4.85;;;;;;;;;;5096484;28;20039;-82
2022/06/14 06:00:00;;;;;;;13.43;5.38;;;;;;;;;;5113211;28;20078;-82
2022/06/14 06:02:45;;;;;;;12.57;4.30;;;;;;;;;;5096329;28;20047;-82
2022/06/14 06:05:23;;;;;;;9.05;4.45;;;;;;;;;;5096398;28;20058;-83
2022/06/14 06:07:57;;;;;;;8.00;4.53;;;;;;;;;;5122652;27;20054;-82
2022/06/14 06:10:29;;;;;;;9.02;4.20;;;;;;;;;;5116435;27;20582;-81
2022/06/14 06:12:58;;;;;;;12.95;4.75;;;;;;;;;;5114239;27;20046;-81
2022/06/14 06:15:27;;;;;;;11.85;4.22;;;;;;;;;;5095854;28;20267;-82
2022/06/14 06:17:56;;;;;;;10.25;4.00;;;;;;;;;;5095696;28;20035;-81
2022/06/14 06:20:30;;;;;;;8.50;3.53;;;;;;;;;;5096112;28;20089;-82
2022/06/14 06:23:06;;;;;;;10.33;3.90;;;;;;;;;;5094184;28;20070;-82
2022/06/14 06:25:34;;;;;;;12.75;4.28;;;;;;;;;;5075046;28;20331;-82
2022/06/14 06:28:04;;;;;;;10.80;4.20;;;;;;;;;;5125406;27;20118;-82
2022/06/14 06:30:35;;;;;;;12.63;4.90;;;;;;;;;;5115076;27;20130;-82
2022/06/14 06:33:02;;;;;;;9.98;3.78;;;;;;;;;;5114614;27;20096;-82
2022/06/14 06:35:37;;;;;;;10.15;3.70;;;;;;;;;;5115491;27;20163;-82
2022/06/14 06:38:12;;;;;;;10.13;3.60;;;;;;;;;;5132480;27;20035;-83
2022/06/14 06:41:49;;;;;;;10.45;3.65;;;;;;;;;;5133158;27;20387;-82
2022/06/14 06:43:28;;;;;;;10.80;3.38;;;;;;;;;;5121259;27;20072;-82
2022/06/14 06:45:54;;;;;;;9.30;2.97;;;;;;;;;;5127740;27;20035;-83
2022/06/14 06:48:24;;;;;;;9.30;3.50;;;;;;;;;;5096419;28;20034;-82
2022/06/14 06:50:55;;;;;;;13.20;3.47;;;;;;;;;;5101725;27;20045;-82
2022/06/14 06:53:23;;;;;;;9.52;3.75;;;;;;;;;;5115988;27;20038;-82
2022/06/14 06:55:56;;;;;;;8.98;3.50;;;;;;;;;;5115787;27;20126;-81
2022/06/14 06:58:27;;;;;;;11.43;4.15;;;;;;;;;;5128990;27;20624;-84
2022/06/14 07:00:55;;;;;;;13.52;3.65;;;;;;;;;;5095010;28;20043;-82
2022/06/14 07:03:41;;;;;;;8.48;3.60;;;;;;;;;;5096905;28;20305;-81
2022/06/14 07:06:10;;;;;;;8.75;3.13;;;;;;;;;;5131782;27;20041;-82
2022/06/14 07:08:37;;;;;;;8.20;2.95;;;;;;;;;;5107813;28;20043;-81
2022/06/14 07:11:04;;;;;;;6.78;3.22;;;;;;;;;;5095291;28;20055;-81
2022/06/14 07:13:32;;;;;;;12.93;3.70;;;;;;;;;;5114669;28;20071;-80
2022/06/14 07:16:11;;;;;;;10.23;3.72;;;;;;;;;;5114314;27;20175;-81
2022/06/14 07:18:37;;;;;;;9.40;3.20;;;;;;;;;;5115994;27;20501;-80
2022/06/14 07:21:07;;;;;;;8.30;2.70;;;;;;;;;;5131566;27;20205;-81
2022/06/14 07:23:45;;;;;;;9.57;2.55;;;;;;;;;;5132494;27;20035;-82
2022/06/14 07:26:38;;;;;;;8.88;2.70;;;;;;;;;;5105070;27;20041;-81
2022/06/14 07:29:07;;;;;;;7.10;2.15;;;;;;;;;;5096213;28;20047;-81
2022/06/14 07:31:36;;;;;;;7.80;2.72;;;;;;;;;;5114774;27;20058;-82
2022/06/14 07:34:03;;;;;;;7.20;2.60;;;;;;;;;;5113786;27;20130;-82
2022/06/14 07:36:34;;;;;;;5.72;2.72;;;;;;;;;;5116417;27;20385;-81
2022/06/14 07:39:04;;;;;;;7.40;2.83;;;;;;;;;;5135378;27;20503;-81
2022/06/14 07:41:49;;;;;;;8.15;3.08;;;;;;;;;;5113599;27;20047;-81
2022/06/14 07:44:15;;;;;;;;;;;;;;;;;;5115110;27;20031;-82
2022/06/14 07:47:02;;;;;;;9.23;2.80;;;;;;;;;;5099145;28;19916;-82
2022/06/14 07:49:31;;;;;;;6.53;2.50;;;;;;;;;;5099662;27;20105;-81
2022/06/14 07:52:20;;;;;;;6.47;2.38;;;;;;;;;;5116815;27;20426;-81
2022/06/14 07:54:48;;;;;;;8.30;2.33;;;;;;;;;;5132061;27;20066;-82
2022/06/14 07:57:15;;;;;;;9.77;2.70;;;;;;;;;;5115213;28;20392;-82
2022/06/14 07:59:47;;;;;;;5.85;2.17;;;;;;;;;;5097249;28;20047;-83
2022/06/14 08:02:34;;;;;;;7.25;2.17;;;;;;;;;;5109199;28;20097;-82
2022/06/14 08:05:20;;;;;;;5.88;2.47;;;;;;;;;;5109979;28;20028;-82
2022/06/14 08:07:48;;;;;;;8.70;2.35;;;;;;;;;;5093228;28;20040;-83
2022/06/14 08:10:17;;;;;;;7.57;2.05;;;;;;;;;;5106533;27;20055;-83
2022/06/14 08:12:45;;;;;;;7.05;2.25;;;;;;;;;;5094484;28;20290;-82
2022/06/14 08:15:15;;;;;;;4.35;2.10;;;;;;;;;;5109204;28;20046;-83
2022/06/14 08:17:46;;;;;;;6.75;2.33;;;;;;;;;;5092760;28;20031;-83
2022/06/14 08:20:27;;;;;;;7.70;2.35;;;;;;;;;;5109769;28;20047;-82
2022/06/14 08:23:01;;;;;;;8.50;2.35;;;;;;;;;;5096291;27;20043;-83
2022/06/14 08:25:30;;;;;;;8.05;2.53;;;;;;;;;;5131228;27;20118;-82
2022/06/14 08:28:15;;;;;;;7.97;2.50;;;;;;;;;;5112311;27;20070;-82
2022/06/14 08:30:45;;;;;;;7.07;2.33;;;;;;;;;;5096174;27;20045;-81
2022/06/14 08:33:21;;;;;;;8.07;2.30;;;;;;;;;;5112283;27;20031;-82
2022/06/14 08:35:55;;;;;;;5.72;2.33;;;;;;;;;;5130238;27;20027;-82
2022/06/14 08:38:25;;;;;;;6.53;2.25;;;;;;;;;;5131217;27;20045;-83
2022/06/14 08:41:07;;;;;;;8.32;2.50;;;;;;;;;;5113655;27;20071;-82
2022/06/14 08:43:37;;;;;;;6.32;2.05;;;;;;;;;;5114280;27;20514;-81
2022/06/14 08:46:16;;;;;;;7.63;2.20;;;;;;;;;;5113264;28;20035;-82
2022/06/14 08:48:44;;;;;;;7.05;2.10;;;;;;;;;;5098085;28;20434;-81
2022/06/14 08:51:32;;;;;;;5.97;2.10;;;;;;;;;;5131695;28;20075;-81
2022/06/14 08:53:58;;;;;;;7.47;2.05;;;;;;;;;;5132233;28;20042;-82
2022/06/14 08:56:27;;;;;;;6.95;2.00;;;;;;;;;;5130133;28;20142;-82
2022/06/14 08:58:53;;;;;;;7.45;2.42;;;;;;;;;;5103725;28;20071;-83
2022/06/14 09:01:19;;;;;;;5.57;2.10;;;;;;;;;;5105147;28;20414;-82
2022/06/14 09:04:04;;;;;;;6.90;1.95;;;;;;;;;;5095879;28;20077;-83
2022/06/14 09:06:36;;;;;;;7.72;2.00;;;;;;;;;;5112254;28;20035;-79
2022/06/14 09:09:21;;;;;;;5.53;2.15;;;;;;;;;;5100765;28;20127;-80
2022/06/14 09:12:10;;;;;;;8.93;2.08;;;;;;;;;;5111191;28;20096;-80
2022/06/14 09:14:55;;;;;;;5.20;1.83;;;;;;;;;;5063709;28;20048;-81
2022/06/14 09:17:48;;;;;;;6.90;2.38;;;;;;;;;;5093296;28;20035;-81
2022/06/14 09:20:17;;;;;;;4.63;1.75;;;;;;;;;;5094158;28;20043;-81
2022/06/14 09:23:02;;;;;;;6.90;2.10;;;;;;;;;;5112166;28;20532;-81
2022/06/14 09:25:28;;;;;;;5.38;1.85;;;;;;;;;;5094987;28;20538;-81
2022/06/14 09:27:58;;;;;;;6.20;2.08;;;;;;;;;;5108516;28;20517;-80
2022/06/14 09:30:45;;;;;;;4.03;2.13;;;;;;;;;;5091913;28;20102;-81
2022/06/14 09:33:30;;;;;;;4.10;1.92;;;;;;;;;;5107613;28;20035;-80
2022/06/14 09:35:56;;;;;;;;;;;;;;;;;;5073099;28;20471;-81
2022/06/14 09:38:41;;;;;;;5.28;2.00;;;;;;;;;;5072021;28;19927;-83
2022/06/14 09:41:13;;;;;;;5.82;1.70;;;;;;;;;;5103688;28;20051;-82
2022/06/14 09:43:40;;;;;;;3.65;1.88;;;;;;;;;;5092378;28;20045;-83
2022/06/14 09:46:32;;;;;;;6.50;2.30;;;;;;;;;;5117460;28;20058;-82
2022/06/14 09:49:08;;;;;;;6.35;2.00;;;;;;;;;;5095802;28;20043;-82
2022/06/14 09:51:43;;;;;;;7.32;2.35;;;;;;;;;;5091409;28;20538;-81
2022/06/14 09:54:28;;;;;;;5.90;2.20;;;;;;;;;;5102447;28;20122;-83
2022/06/14 09:57:29;;;;;;;5.15;2.38;;;;;;;;;;5094395;28;20097;-81
2022/06/14 09:59:58;;;;;;;6.78;2.20;;;;;;;;;;5101170;27;20050;-81
2022/06/14 10:02:42;;;;;;;4.35;1.90;;;;;;;;;;5131592;27;20054;-82
2022/06/14 10:05:27;;;;;;;7.68;2.78;;;;;;;;;;5097375;27;20453;-80
2022/06/14 10:08:15;;;;;;;5.32;2.03;;;;;;;;;;5134900;27;20050;-86
2022/06/14 10:11:00;;;;;;;4.72;2.00;;;;;;;;;;5132226;27;20522;-83
2022/06/14 10:13:29;;;;;;;5.03;1.73;;;;;;;;;;5094060;28;20043;-82
2022/06/14 10:15:59;;;;;;;6.32;2.10;;;;;;;;;;5105571;27;20035;-84
2022/06/14 10:18:28;;;;;;;5.80;2.13;;;;;;;;;;5114959;27;20130;-82
2022/06/14 10:21:03;;;;;;;6.28;2.00;;;;;;;;;;5110004;28;20048;-82
2022/06/14 10:23:39;;;;;;;5.20;1.90;;;;;;;;;;5121328;27;20053;-81
2022/06/14 10:29:00;;;;;;;3.33;1.58;;;;;;;;;;5099967;27;20099;-81
2022/06/14 10:31:52;;;;;;;3.65;1.67;;;;;;;;;;5131056;27;20039;-82
2022/06/14 10:34:22;;;;;;;6.13;1.70;;;;;;;;;;5058788;28;20051;-82
2022/06/14 10:36:59;;;;;;;4.05;1.48;;;;;;;;;;5098975;27;20522;-82
2022/06/14 10:39:28;;;;;;;3.72;1.50;;;;;;;;;;5103034;28;20044;-82
2022/06/14 10:41:54;;;;;;;5.45;1.40;;;;;;;;;;5093563;28;20046;-82
2022/06/14 10:44:21;;;;;;;2.55;1.20;;;;;;;;;;5109607;27;20035;-82
2022/06/14 10:47:02;;;;;;;4.20;1.42;;;;;;;;;;5095178;28;20511;-83
2022/06/14 10:49:41;;;;;;;3.58;1.48;;;;;;;;;;5094148;28;20032;-82
2022/06/14 10:52:16;;;;;;;4.80;1.48;;;;;;;;;;5112433;27;20495;-83
2022/06/14 10:54:42;;;;;;;4.78;1.60;;;;;;;;;;5114247;27;20385;-83
2022/06/14 10:57:15;;;;;;;3.92;1.30;;;;;;;;;;5119327;27;20114;-82
2022/06/14 10:59:59;;;;;;;3.75;1.50;;;;;;;;;;5113311;27;20043;-83
2022/06/14 11:02:25;;;;;;;4.28;1.60;;;;;;;;;;5093902;28;20079;-85
2022/06/14 11:04:51;;;;;;;5.07;1.95;;;;;;;;;;5105174;27;20478;-84
2022/06/14 11:07:25;;;;;;;6.97;1.98;;;;;;;;;;5131532;27;20035;-83
2022/06/14 11:10:10;;;;;;;5.45;1.80;;;;;;;;;;5095866;27;20107;-83
2022/06/14 11:12:39;;;;;;;6.05;1.92;;;;;;;;;;5112744;27;20435;-83
2022/06/14 11:15:10;;;;;;;4.10;1.23;;;;;;;;;;5099927;28;20040;-83
2022/06/14 11:17:43;;;;;;;3.83;1.52;;;;;;;;;;5109025;27;20070;-82
2022/06/14 11:20:19;;;;;;;5.55;1.75;;;;;;;;;;5098774;27;20398;-82
2022/06/14 11:23:07;;;;;;;5.13;1.60;;;;;;;;;;5100923;28;20043;-83
2022/06/14 11:25:38;;;;;;;3.95;1.52;;;;;;;;;;5108482;27;20039;-83
2022/06/14 11:28:08;;;;;;;6.75;2.00;;;;;;;;;;5098464;27;20043;-83
2022/06/14 11:30:34;;;;;;;4.38;1.70;;;;;;;;;;5102908;28;20035;-83
2022/06/14 11:33:03;;;;;;;7.35;1.60;;;;;;;;;;5093049;28;20077;-82
2022/06/14 11:35:32;;;;;;;6.32;1.70;;;;;;;;;;5125597;27;20045;-81
2022/06/14 11:38:13;;;;;;;5.40;2.20;;;;;;;;;;5099003;27;20035;-80
2022/06/14 11:40:46;;;;;;;4.78;1.73;;;;;;;;;;5117547;27;20028;-83
2022/06/14 11:43:34;;;;;;;5.55;1.70;;;;;;;;;;5108557;27;20066;-82
2022/06/14 11:46:30;;;;;;;5.35;1.63;;;;;;;;;;5117313;27;20042;-82
2022/06/14 11:49:09;;;;;;;4.18;1.90;;;;;;;;;;5022607;28;20060;-83
2022/06/14 11:51:48;;;;;;;4.60;1.80;;;;;;;;;;5089730;28;20036;-82
2022/06/14 11:54:47;;;;;;;5.20;1.55;;;;;;;;;;5114431;27;20089;-83
2022/06/14 11:57:20;;;;;;;5.75;1.95;;;;;;;;;;5041391;27;20051;-81
2022/06/14 11:59:48;;;;;;;5.28;1.85;;;;;;;;;;5129656;27;20498;-82
2022/06/14 12:02:28;;;;;;;5.22;1.77;;;;;;;;;;5099342;28;20082;-83
2022/06/14 12:05:01;;;;;;;5.43;1.73;;;;;;;;;;5108009;27;20043;-83
2022/06/14 12:07:34;;;;;;;5.47;1.90;;;;;;;;;;5109579;28;20039;-82
2022/06/14 12:10:19;;;;;;;5.32;1.95;;;;;;;;;;5103221;27;20518;-83
2022/06/14 12:12:45;;;;;;;;;;;;;;;;;;5112616;27;20478;-82
2022/06/14 12:15:14;;;;;;;6.20;1.70;;;;;;;;;;5118362;27;20014;-82
2022/06/14 12:17:50;;;;;;;5.30;1.70;;;;;;;;;;5114061;27;20045;-82
2022/06/14 12:20:21;;;;;;;3.65;1.90;;;;;;;;;;5114440;27;20039;-87
2022/06/14 12:22:53;;;;;;;4.93;1.90;;;;;;;;;;5095032;27;20502;-83
2022/06/14 12:28:18;;;;;;;4.70;2.05;;;;;;;;;;5074599;28;20040;-83
2022/06/14 12:30:45;;;;;;;5.03;1.80;;;;;;;;;;5079845;27;20495;-82
2022/06/14 12:33:31;;;;;;;6.32;2.35;;;;;;;;;;5103625;28;20505;-81
2022/06/14 12:36:24;;;;;;;4.28;1.90;;;;;;;;;;5109017;27;20039;-82
2022/06/14 12:38:53;;;;;;;4.07;1.77;;;;;;;;;;5109648;27;20046;-84
2022/06/14 12:41:24;;;;;;;4.50;1.60;;;;;;;;;;5114355;28;20069;-83
2022/06/14 12:44:09;;;;;;;5.22;1.85;;;;;;;;;;5115290;28;20035;-83
2022/06/14 12:46:39;;;;;;;4.82;1.85;;;;;;;;;;5109745;28;20464;-84
2022/06/14 12:49:21;;;;;;;3.88;1.60;;;;;;;;;;5094786;28;20043;-83
2022/06/14 12:52:06;;;;;;;4.93;1.67;;;;;;;;;;5112296;28;20147;-83
2022/06/14 12:54:46;;;;;;;4.90;1.90;;;;;;;;;;5099771;28;20039;-83
2022/06/14 12:57:22;;;;;;;4.03;1.70;;;;;;;;;;5118409;28;20050;-83
2022/06/14 13:00:04;;;;;;;7.25;2.20;;;;;;;;;;5093629;28;20126;-84
2022/06/14 13:02:33;;;;;;;4.22;2.00;;;;;;;;;;5121341;28;20050;-84
2022/06/14 13:05:00;;;;;;;5.93;2.00;;;;;;;;;;5119147;28;20048;-84
2022/06/14 13:07:38;;;;;;;4.43;2.22;;;;;;;;;;5111147;28;20035;-79
2022/06/14 13:10:07;;;;;;;3.92;1.70;;;;;;;;;;5095214;28;20059;-87
2022/06/14 13:12:43;;;;;;;7.10;2.03;;;;;;;;;;5113540;28;20346;-87
2022/06/14 13:15:09;;;;;;;7.13;2.10;;;;;;;;;;5114015;28;20042;-87
2022/06/14 13:17:54;;;;;;;6.72;2.60;;;;;;;;;;5096023;28;20035;-87
2022/06/14 13:20:27;;;;;;;6.43;1.90;;;;;;;;;;5093726;28;20543;-86
2022/06/14 13:23:00;;;;;;;4.25;1.83;;;;;;;;;;5092713;28;20122;-86
2022/06/14 13:25:40;;;;;;;4.35;2.10;;;;;;;;;;5109950;28;20035;-84
2022/06/14 13:28:25;;;;;;;5.60;2.40;;;;;;;;;;5130387;28;20114;-85
2022/06/14 13:30:51;;;;;;;;;;;;;;;;;;5099882;28;20040;-86
2022/06/14 13:33:17;;;;;;;7.38;2.17;;;;;;;;;;5092933;28;19922;-86
2022/06/14 13:35:53;;;;;;;7.68;2.28;;;;;;;;;;5111136;28;20039;-84
2022/06/14 13:38:37;;;;;;;4.80;2.00;;;;;;;;;;5096494;28;20040;-85
2022/06/14 13:41:06;;;;;;;6.60;2.33;;;;;;;;;;5096030;28;20046;-84
2022/06/14 13:43:36;;;;;;;6.15;2.90;;;;;;;;;;5101196;27;20031;-82
2022/06/14 13:46:05;;;;;;;6.53;2.35;;;;;;;;;;5116697;27;20035;-82
2022/06/14 13:48:34;;;;;;;8.27;2.63;;;;;;;;;;5104356;28;20067;-82
2022/06/14 13:51:19;;;;;;;6.72;2.40;;;;;;;;;;5130701;27;20039;-82
2022/06/14 13:53:45;;;;;;;;;;;;;;;;;;5116794;27;20050;-83
2022/06/14 13:56:19;;;;;;;5.28;2.42;;;;;;;;;;5116813;27;19919;-83
2022/06/14 13:58:50;;;;;;;5.93;2.13;;;;;;;;;;5115459;27;20196;-81
2022/06/14 14:01:20;;;;;;;7.30;2.20;;;;;;;;;;5099124;28;20046;-82
2022/06/14 14:03:52;;;;;;;6.93;2.47;;;;;;;;;;5123717;27;20035;-81
2022/06/14 14:06:22;;;;;;;5.85;1.80;;;;;;;;;;5117828;27;20335;-82
2022/06/14 14:09:09;;;;;;;5.20;1.98;;;;;;;;;;5117009;27;20127;-82
2022/06/14 14:11:49;;;;;;;3.45;1.77;;;;;;;;;;5097291;28;20094;-83
2022/06/14 14:14:24;;;;;;;4.47;2.00;;;;;;;;;;5098044;28;20043;-82
2022/06/14 14:16:51;;;;;;;6.65;2.38;;;;;;;;;;5129313;27;20126;-81
2022/06/14 14:19:34;;;;;;;4.93;2.15;;;;;;;;;;5095523;28;20402;-82
2022/06/14 14:22:10;;;;;;;4.20;2.10;;;;;;;;;;5125240;27;20043;-82
2022/06/14 14:25:06;;;;;;;4.25;1.88;;;;;;;;;;5115066;27;20039;-81
2022/06/14 14:27:42;;;;;;;5.65;2.03;;;;;;;;;;5102811;27;20039;-83
2022/06/14 14:30:14;;;;;;;4.97;2.17;;;;;;;;;;5133540;27;20087;-83
2022/06/14 14:32:45;;;;;;;4.22;1.80;;;;;;;;;;5116605;27;20050;-82
2022/06/14 14:35:17;;;;;;;5.53;2.05;;;;;;;;;;5107277;28;20035;-83
2022/06/14 14:37:48;;;;;;;5.13;1.98;;;;;;;;;;5094769;28;20040;-83
2022/06/14 14:40:27;;;;;;;4.68;1.90;;;;;;;;;;5097095;27;20055;-85
2022/06/14 14:43:05;;;;;;;4.70;2.00;;;;;;;;;;5114973;27;20046;-83
2022/06/14 14:45:49;;;;;;;8.02;2.45;;;;;;;;;;5132540;27;20537;-86
2022/06/14 14:48:18;;;;;;;3.65;1.92;;;;;;;;;;5131378;27;20043;-85
2022/06/14 14:51:04;;;;;;;5.25;2.10;;;;;;;;;;5113888;27;20134;-85
2022/06/14 14:53:58;;;;;;;5.32;1.85;;;;;;;;;;5116276;27;20039;-83
2022/06/14 14:56:56;;;;;;;5.88;1.95;;;;;;;;;;5133123;27;20043;-83
2022/06/14 14:59:41;;;;;;;3.78;1.80;;;;;;;;;;5060168;27;20051;-83
2022/06/14 15:07:47;;;;;;;4.97;1.83;;;;;;;;;;5113973;27;20194;-81
2022/06/14 15:10:20;;;;;;;5.80;2.08;;;;;;;;;;5132504;27;20058;-82
2022/06/14 15:12:49;;;;;;;5.78;2.47;;;;;;;;;;5115872;27;20111;-82
2022/06/14 15:15:18;;;;;;;6.38;2.25;;;;;;;;;;5131738;27;20047;-83
2022/06/14 15:20:31;;;;;;;4.55;2.05;;;;;;;;;;5133915;27;20039;-83
2022/06/14 15:22:58;;;;;;;5.05;2.10;;;;;;;;;;5116230;27;20402;-83
2022/06/14 15:25:26;;;;;;;4.43;2.10;;;;;;;;;;5095859;27;20441;-81
2022/06/14 15:28:08;;;;;;;4.38;1.92;;;;;;;;;;5107280;28;20048;-85
2022/06/14 15:30:34;;;;;;;4.45;1.92;;;;;;;;;;5095203;28;20036;-83
2022/06/14 15:33:14;;;;;;;5.88;2.20;;;;;;;;;;5094127;28;20039;-84
2022/06/14 15:35:48;;;;;;;3.95;1.58;;;;;;;;;;5096623;28;20082;-83
2022/06/14 15:38:14;;;;;;;4.05;1.60;;;;;;;;;;5103237;27;20047;-83
2022/06/14 15:40:41;;;;;;;3.67;1.80;;;;;;;;;;5118441;27;20047;-83
2022/06/14 15:43:20;;;;;;;5.35;2.33;;;;;;;;;;5092614;28;20051;-81